Aeroporto :
LOGIN :

Iscrizione | Disclaimer

   EN    FR    IT 

 










Sommario :    VFR   VFR Marginale   IFR   IFR Intensivo   IFR Molto Intensivo
Visibilità : 
Base nubi : 
>= 8 km
>= 3000ft
5 / 8 km
1000 / 3000 ft
1500m / 5 km
500 / 1000 ft
800 / 1500m
200 / 500 ft
< 800m
< 200 ft
Simboli :   Temporali  Nebbia  Neve Forte  Precipitazioni Forti  Vento > 20 kt
SIGMETs :   Varie  Temporali  Ghiacco  Turbolenza  Onda orograficha  Ceneri Vulcaniche







- Altitudine del aeroporto : 659 ft
- Codice IATA : LGG


EBLG - Liège

ULTIMO METAR :
  • 190750Z 33005KT 300V360 2600 BR SCT006 14/13 Q1006 NOSIG

METARs OBSOLETI :
  • 190720Z 32003KT 290V350 2100 BR SCT004 14/12 Q1006 NOSIG
  • 190650Z 32004KT 280V360 1900 BR SCT004 14/13 Q1006 NOSIG
  • 190620Z 31004KT 280V340 1500 BR SCT002 13/12 Q1006 NOSIG
  • 190550Z 32004KT 270V350 1300 R22L/1600D R22R/1800N R04R/1200N BR SCT002 13/12 Q1006 NOSIG
  • 190520Z 31005KT 1700 BR FEW030 12/11 Q1006 NOSIG

TAF TAF EBLG
Valido dal 19 a 06 ore il 20 a 12 ore UTC


190510Z 1906/2012 34005KT 8000 FEW030TCU SCT045
PROB40
TEMPO 1906/1911 4000 SHRA
TEMPO 1911/1921 4000 SHRA
PROB40
TEMPO 1913/1919 VRB15G25KT 2000 TSRAGS BKN006 BKN025CB
BECMG 2000/2002 2000 BR BKN003
PROB40 2002/2008 0200 FG BKN001
BECMG 2010/2012 6000 NSW BKN008
Nessun NOTAM noto per questo aeroporto.



MetMap, La meteo Aeronautica in un colpo d'occhio ! - Copyright ORBIFLY Dicembre 2007 - Disclaimer

ORBIFLY MET'MAP TEAM :

Programmazione e sviluppo : Alexandra Zaïnal
Concezione e sviluppo : Baudouin d'Aumeries
Co-Programmazione e sviluppo : Marc-Olivier Méhu
Supporto tecnico e logistico : Manuel Goepfert
Aiuto per la traduzione : Arnaldo La Scala

Contatto : metmap@orbifly.com




FONTI E CREDITI :

   NOAA